sensor_id;sensor_type;location;lat;lon;timestamp;pressure;altitude;pressure_sealevel;temperature;humidity
74435;BME280;62867;52.038;29.256;2022-10-16T00:04:13;1033.1;;;7.7;63.8
74435;BME280;62867;52.038;29.256;2022-10-16T00:09:15;1033.1;;;7.7;64.1
74435;BME280;62867;52.038;29.256;2022-10-16T00:14:08;1033.1;;;7.7;63.6
74435;BME280;62867;52.038;29.256;2022-10-16T00:19:15;1033.1;;;7.7;63
74435;BME280;62867;52.038;29.256;2022-10-16T00:23:43;1033.1;;;7.8;63.2
74435;BME280;62867;52.038;29.256;2022-10-16T00:28:57;1033.1;;;7.8;61.9
74435;BME280;62867;52.038;29.256;2022-10-16T00:33:43;1033.1;;;7.9;62.5
74435;BME280;62867;52.038;29.256;2022-10-16T00:39:21;1033.2;;;7.9;62
74435;BME280;62867;52.038;29.256;2022-10-16T00:44:55;1033.2;;;7.9;62
74435;BME280;62867;52.038;29.256;2022-10-16T00:48:45;1033.2;;;7.9;61.1
74435;BME280;62867;52.038;29.256;2022-10-16T00:54:06;1033.2;;;7.9;60.3
74435;BME280;62867;52.038;29.256;2022-10-16T00:59:26;1033.3;;;7.9;60.8
74435;BME280;62867;52.038;29.256;2022-10-16T01:04:23;1033.3;;;7.9;60.6
74435;BME280;62867;52.038;29.256;2022-10-16T01:09:09;1033.3;;;7.9;60.9
74435;BME280;62867;52.038;29.256;2022-10-16T01:14:25;1033.3;;;7.9;61.3
74435;BME280;62867;52.038;29.256;2022-10-16T01:18:57;1033.3;;;7.9;61.2
74435;BME280;62867;52.038;29.256;2022-10-16T01:23:45;1033.3;;;7.9;60.7
74435;BME280;62867;52.038;29.256;2022-10-16T01:29:16;1033.3;;;7.9;60.7
74435;BME280;62867;52.038;29.256;2022-10-16T01:34:10;1033.3;;;7.9;60.4
74435;BME280;62867;52.038;29.256;2022-10-16T01:39:18;1033.3;;;7.8;61
74435;BME280;62867;52.038;29.256;2022-10-16T01:44:20;1033.3;;;7.8;60.2
74435;BME280;62867;52.038;29.256;2022-10-16T01:49:08;1033.3;;;7.8;60.4
74435;BME280;62867;52.038;29.256;2022-10-16T01:54:25;1033.4;;;7.7;61
74435;BME280;62867;52.038;29.256;2022-10-16T01:59:18;1033.4;;;7.7;60.7
74435;BME280;62867;52.038;29.256;2022-10-16T02:03:43;1033.5;;;7.7;60.6
74435;BME280;62867;52.038;29.256;2022-10-16T02:08:53;1033.4;;;7.7;60.4
74435;BME280;62867;52.038;29.256;2022-10-16T02:13:50;1033.4;;;7.6;60.8
74435;BME280;62867;52.038;29.256;2022-10-16T02:19:23;1033.5;;;7.6;61.5
74435;BME280;62867;52.038;29.256;2022-10-16T02:24:05;1033.5;;;7.6;61.1
74435;BME280;62867;52.038;29.256;2022-10-16T02:29:24;1033.5;;;7.6;60.5
74435;BME280;62867;52.038;29.256;2022-10-16T02:34:13;1033.6;;;7.5;61
74435;BME280;62867;52.038;29.256;2022-10-16T02:39:17;1033.6;;;7.5;60.8
74435;BME280;62867;52.038;29.256;2022-10-16T02:44:06;1033.6;;;7.4;60.9
74435;BME280;62867;52.038;29.256;2022-10-16T02:49:07;1033.6;;;7.4;60.8
74435;BME280;62867;52.038;29.256;2022-10-16T02:54:07;1033.6;;;7.3;61.6
74435;BME280;62867;52.038;29.256;2022-10-16T02:58:55;1033.6;;;7.3;61.4
74435;BME280;62867;52.038;29.256;2022-10-16T03:03:43;1033.6;;;7.2;61
74435;BME280;62867;52.038;29.256;2022-10-16T03:09:05;1033.6;;;7.2;61.8
74435;BME280;62867;52.038;29.256;2022-10-16T03:14:29;1033.6;;;7.2;61.5
74435;BME280;62867;52.038;29.256;2022-10-16T03:19:15;1033.6;;;7.2;61.4
74435;BME280;62867;52.038;29.256;2022-10-16T03:24:05;1033.7;;;7.2;61.3
74435;BME280;62867;52.038;29.256;2022-10-16T03:28:57;1033.7;;;7.2;61.8
74435;BME280;62867;52.038;29.256;2022-10-16T03:34:29;1033.7;;;7.1;61.9
74435;BME280;62867;52.038;29.256;2022-10-16T03:39:27;1033.8;;;7.1;61.7
74435;BME280;62867;52.038;29.256;2022-10-16T03:44:07;1033.9;;;7;62
74435;BME280;62867;52.038;29.256;2022-10-16T03:48:44;1033.9;;;7;61.9
74435;BME280;62867;52.038;29.256;2022-10-16T03:53:51;1034;;;6.9;62
74435;BME280;62867;52.038;29.256;2022-10-16T03:59:19;1034;;;6.9;61.8
74435;BME280;62867;52.038;29.256;2022-10-16T04:03:57;1034.1;;;6.9;61.4
74435;BME280;62867;52.038;29.256;2022-10-16T04:08:55;1034.2;;;6.9;62.2
74435;BME280;62867;52.038;29.256;2022-10-16T04:14:17;1034.3;;;6.8;62.3
74435;BME280;62867;52.038;29.256;2022-10-16T04:19:29;1034.3;;;6.8;62
74435;BME280;62867;52.038;29.256;2022-10-16T04:24:19;1034.3;;;6.8;62.1
74435;BME280;62867;52.038;29.256;2022-10-16T04:29:31;1034.3;;;6.7;62.5
74435;BME280;62867;52.038;29.256;2022-10-16T04:34:31;1034.4;;;6.7;63.1
74435;BME280;62867;52.038;29.256;2022-10-16T04:38:43;1034.4;;;6.6;62.3
74435;BME280;62867;52.038;29.256;2022-10-16T04:43:57;1034.4;;;6.6;62.4
74435;BME280;62867;52.038;29.256;2022-10-16T04:49:31;1034.5;;;6.6;64
74435;BME280;62867;52.038;29.256;2022-10-16T04:54:29;1034.5;;;6.6;63.4
74435;BME280;62867;52.038;29.256;2022-10-16T04:58:45;1034.5;;;6.6;62.8
74435;BME280;62867;52.038;29.256;2022-10-16T05:04:19;1034.6;;;6.6;62.8
74435;BME280;62867;52.038;29.256;2022-10-16T05:09:19;1034.6;;;6.6;62.6
74435;BME280;62867;52.038;29.256;2022-10-16T05:13:43;1034.5;;;6.6;62.5
74435;BME280;62867;52.038;29.256;2022-10-16T05:18:43;1034.6;;;6.6;62.7
74435;BME280;62867;52.038;29.256;2022-10-16T05:24:19;1034.7;;;6.7;62.6
74435;BME280;62867;52.038;29.256;2022-10-16T05:28:57;1034.8;;;6.8;62.8
74435;BME280;62867;52.038;29.256;2022-10-16T05:33:43;1034.8;;;6.9;62.2
74435;BME280;62867;52.038;29.256;2022-10-16T05:39:07;1034.9;;;7;61.8
74435;BME280;62867;52.038;29.256;2022-10-16T05:44:09;1034.9;;;7.1;60.8
74435;BME280;62867;52.038;29.256;2022-10-16T05:49:19;1034.9;;;7.3;61
74435;BME280;62867;52.038;29.256;2022-10-16T05:54:07;1034.9;;;7.5;60.6
74435;BME280;62867;52.038;29.256;2022-10-16T05:59:09;1035;;;7.8;60.8
74435;BME280;62867;52.038;29.256;2022-10-16T06:04:31;1035;;;8.1;60.4
74435;BME280;62867;52.038;29.256;2022-10-16T06:09:25;1035.1;;;8.4;59.3
74435;BME280;62867;52.038;29.256;2022-10-16T06:13:44;1035.2;;;8.6;58.5
74435;BME280;62867;52.038;29.256;2022-10-16T06:18:44;1035.2;;;8.7;58
74435;BME280;62867;52.038;29.256;2022-10-16T06:23:57;1035.2;;;8.9;57.4
74435;BME280;62867;52.038;29.256;2022-10-16T06:29:19;1035.3;;;9.1;57.4
74435;BME280;62867;52.038;29.256;2022-10-16T06:34:08;1035.2;;;9.3;56.6
74435;BME280;62867;52.038;29.256;2022-10-16T06:39:29;1035.2;;;9.5;55.9
74435;BME280;62867;52.038;29.256;2022-10-16T06:44:19;1035.2;;;9.7;55.7
74435;BME280;62867;52.038;29.256;2022-10-16T06:49:29;1035.2;;;9.9;55.1
74435;BME280;62867;52.038;29.256;2022-10-16T06:54:15;1035.2;;;10;54.9
74435;BME280;62867;52.038;29.256;2022-10-16T06:59:31;1035.2;;;10.2;54.5
74435;BME280;62867;52.038;29.256;2022-10-16T07:04:31;1035.2;;;10.5;54.5
74435;BME280;62867;52.038;29.256;2022-10-16T07:08:44;1035.3;;;10.7;53.9
74435;BME280;62867;52.038;29.256;2022-10-16T07:14:09;1035.4;;;10.8;53.2
74435;BME280;62867;52.038;29.256;2022-10-16T07:18:44;1035.4;;;11;52.1
74435;BME280;62867;52.038;29.256;2022-10-16T07:24:29;1035.5;;;11.2;51.9
74435;BME280;62867;52.038;29.256;2022-10-16T07:29:18;1035.4;;;11.4;51.2
74435;BME280;62867;52.038;29.256;2022-10-16T07:34:29;1035.4;;;11.6;51.2
74435;BME280;62867;52.038;29.256;2022-10-16T07:39:17;1035.3;;;11.8;50.6
74435;BME280;62867;52.038;29.256;2022-10-16T07:44:19;1035.3;;;12;50.4
74435;BME280;62867;52.038;29.256;2022-10-16T07:49:08;1035.3;;;12.2;50.1
74435;BME280;62867;52.038;29.256;2022-10-16T07:54:19;1035.2;;;12.4;50.2
74435;BME280;62867;52.038;29.256;2022-10-16T07:58:57;1035.1;;;12.6;49.8
74435;BME280;62867;52.038;29.256;2022-10-16T08:03:59;1035.1;;;12.8;49.2
74435;BME280;62867;52.038;29.256;2022-10-16T08:08:56;1035.2;;;12.9;48.6
74435;BME280;62867;52.038;29.256;2022-10-16T08:14:29;1035.2;;;13.1;47
74435;BME280;62867;52.038;29.256;2022-10-16T08:19:31;1035.2;;;13.3;46.2
74435;BME280;62867;52.038;29.256;2022-10-16T08:24:09;1035.2;;;13.4;45.5
74435;BME280;62867;52.038;29.256;2022-10-16T08:28:43;1035.2;;;13.6;45.7
74435;BME280;62867;52.038;29.256;2022-10-16T08:34:31;1035.3;;;13.8;44.7
74435;BME280;62867;52.038;29.256;2022-10-16T08:39:29;1035.2;;;14;44.5
74435;BME280;62867;52.038;29.256;2022-10-16T08:44:15;1035.2;;;14.2;44
74435;BME280;62867;52.038;29.256;2022-10-16T08:48:56;1035.2;;;14.4;44.4
74435;BME280;62867;52.038;29.256;2022-10-16T08:54:23;1035.1;;;14.7;43.8
74435;BME280;62867;52.038;29.256;2022-10-16T08:58:44;1035.2;;;15;43.7
74435;BME280;62867;52.038;29.256;2022-10-16T09:03:50;1035.2;;;15.2;43.1
74435;BME280;62867;52.038;29.256;2022-10-16T09:08:55;1035.1;;;15.3;42.5
74435;BME280;62867;52.038;29.256;2022-10-16T09:14:27;1035.1;;;15.4;40.6
74435;BME280;62867;52.038;29.256;2022-10-16T09:19:24;1035;;;15.5;40.1
74435;BME280;62867;52.038;29.256;2022-10-16T09:24:10;1035.1;;;15.7;40
74435;BME280;62867;52.038;29.256;2022-10-16T09:29:31;1035.2;;;15.8;39.5
74435;BME280;62867;52.038;29.256;2022-10-16T09:34:24;1035.2;;;16;39
74435;BME280;62867;52.038;29.256;2022-10-16T09:39:24;1035.2;;;16.2;38.6
74435;BME280;62867;52.038;29.256;2022-10-16T09:43:58;1035.2;;;16.4;38.5
74435;BME280;62867;52.038;29.256;2022-10-16T09:48:44;1035.2;;;16.5;38.5
74435;BME280;62867;52.038;29.256;2022-10-16T09:54:33;1035.3;;;16.7;38.7
74435;BME280;62867;52.038;29.256;2022-10-16T09:59:20;1035.4;;;16.9;38.5
74435;BME280;62867;52.038;29.256;2022-10-16T10:04:37;1035.4;;;17;38.1
74435;BME280;62867;52.038;29.256;2022-10-16T10:09:20;1035.4;;;17.1;37.8
74435;BME280;62867;52.038;29.256;2022-10-16T10:14:16;1035.3;;;17.3;36.4
74435;BME280;62867;52.038;29.256;2022-10-16T10:19:12;1035.2;;;17.3;35.8
74435;BME280;62867;52.038;29.256;2022-10-16T10:23:54;1035.2;;;17.4;34.7
74435;BME280;62867;52.038;29.256;2022-10-16T10:29:00;1035.2;;;17.4;35.2
74435;BME280;62867;52.038;29.256;2022-10-16T10:34:01;1035.2;;;17.6;35.5
74435;BME280;62867;52.038;29.256;2022-10-16T10:38:46;1035.3;;;17.8;35.2
74435;BME280;62867;52.038;29.256;2022-10-16T10:44:37;1035.3;;;17.9;35.3
74435;BME280;62867;52.038;29.256;2022-10-16T10:49:37;1035.1;;;18;35.2
74435;BME280;62867;52.038;29.256;2022-10-16T10:53:44;1035;;;18.1;35.6
74435;BME280;62867;52.038;29.256;2022-10-16T10:59:15;1035;;;18.3;35.6
74435;BME280;62867;52.038;29.256;2022-10-16T11:04:37;1035;;;18.3;35
74435;BME280;62867;52.038;29.256;2022-10-16T11:09:32;1035;;;18.3;34.9
74435;BME280;62867;52.038;29.256;2022-10-16T11:14:10;1035;;;18.3;34.5
74435;BME280;62867;52.038;29.256;2022-10-16T11:18:47;1035;;;18.3;33.5
74435;BME280;62867;52.038;29.256;2022-10-16T11:24:00;1035;;;18.3;34.9
74435;BME280;62867;52.038;29.256;2022-10-16T11:29:00;1035.1;;;18.3;33.8
74435;BME280;62867;52.038;29.256;2022-10-16T11:34:09;1035;;;18.3;34.2
74435;BME280;62867;52.038;29.256;2022-10-16T11:39:02;1035;;;18.5;34
74435;BME280;62867;52.038;29.256;2022-10-16T11:44:26;1035;;;18.6;33.9
74435;BME280;62867;52.038;29.256;2022-10-16T11:49:22;1035;;;18.5;33.4
74435;BME280;62867;52.038;29.256;2022-10-16T11:54:14;1035;;;18.3;33.4
74435;BME280;62867;52.038;29.256;2022-10-16T11:59:36;1035;;;18.2;33.7
74435;BME280;62867;52.038;29.256;2022-10-16T12:04:34;1034.9;;;17.8;33.2
74435;BME280;62867;52.038;29.256;2022-10-16T12:09:32;1034.9;;;17.3;34.3
74435;BME280;62867;52.038;29.256;2022-10-16T12:13:46;1034.8;;;17;35.7
74435;BME280;62867;52.038;29.256;2022-10-16T12:18:46;1034.8;;;16.8;34.3
74435;BME280;62867;52.038;29.256;2022-10-16T12:24:18;1034.8;;;16.5;34.9
74435;BME280;62867;52.038;29.256;2022-10-16T12:29:36;1034.8;;;16.3;35.4
74435;BME280;62867;52.038;29.256;2022-10-16T12:34:21;1034.7;;;16.1;35.9
74435;BME280;62867;52.038;29.256;2022-10-16T12:39:22;1034.6;;;16;35.7
74435;BME280;62867;52.038;29.256;2022-10-16T12:44:21;1034.6;;;15.8;36.8
74435;BME280;62867;52.038;29.256;2022-10-16T12:49:04;1034.6;;;15.7;36.7
74435;BME280;62867;52.038;29.256;2022-10-16T12:53:44;1034.5;;;15.6;37.3
74435;BME280;62867;52.038;29.256;2022-10-16T12:59:13;1034.5;;;15.4;36.8
74435;BME280;62867;52.038;29.256;2022-10-16T13:04:04;1034.5;;;15.3;37.9
74435;BME280;62867;52.038;29.256;2022-10-16T13:09:13;1034.5;;;15.2;38.6
74435;BME280;62867;52.038;29.256;2022-10-16T13:14:08;1034.5;;;15.2;39.5
74435;BME280;62867;52.038;29.256;2022-10-16T13:19:33;1034.6;;;15.3;38.6
74435;BME280;62867;52.038;29.256;2022-10-16T13:24:25;1034.7;;;15.3;39.8
74435;BME280;62867;52.038;29.256;2022-10-16T13:28:44;1034.7;;;15.4;39.2
74435;BME280;62867;52.038;29.256;2022-10-16T13:34:11;1034.8;;;15.4;38.8
74435;BME280;62867;52.038;29.256;2022-10-16T13:39:36;1034.8;;;15.4;38.8
74435;BME280;62867;52.038;29.256;2022-10-16T13:44:36;1034.8;;;15.4;38.3
74435;BME280;62867;52.038;29.256;2022-10-16T13:48:56;1034.8;;;15.4;38.5
74435;BME280;62867;52.038;29.256;2022-10-16T13:53:46;1034.7;;;15.3;38.9
74435;BME280;62867;52.038;29.256;2022-10-16T13:58:46;1034.5;;;15.2;40.1
74435;BME280;62867;52.038;29.256;2022-10-16T14:04:18;1034.5;;;15.1;40.6
74435;BME280;62867;52.038;29.256;2022-10-16T14:09:06;1034.6;;;15;40.7
74435;BME280;62867;52.038;29.256;2022-10-16T14:14:10;1034.6;;;14.9;40.8
74435;BME280;62867;52.038;29.256;2022-10-16T14:19:15;1034.5;;;14.8;40.4
74435;BME280;62867;52.038;29.256;2022-10-16T14:24:32;1034.3;;;14.8;41.8
74435;BME280;62867;52.038;29.256;2022-10-16T14:29:18;1034.2;;;14.7;41.8
74435;BME280;62867;52.038;29.256;2022-10-16T14:34:35;1034.2;;;14.6;41.8
74435;BME280;62867;52.038;29.256;2022-10-16T14:39:34;1034.4;;;14.5;41.7
74435;BME280;62867;52.038;29.256;2022-10-16T14:43:44;1034.5;;;14.4;41.8
74435;BME280;62867;52.038;29.256;2022-10-16T14:49:00;1034.6;;;14.3;42.8
74435;BME280;62867;52.038;29.256;2022-10-16T14:54:34;1034.7;;;14.1;43.8
74435;BME280;62867;52.038;29.256;2022-10-16T14:59:35;1034.7;;;13.9;44
74435;BME280;62867;52.038;29.256;2022-10-16T15:04:22;1034.7;;;13.6;46.8
74435;BME280;62867;52.038;29.256;2022-10-16T15:09:22;1034.8;;;13.3;48.6
74435;BME280;62867;52.038;29.256;2022-10-16T15:14:22;1034.9;;;12.9;49.3
74435;BME280;62867;52.038;29.256;2022-10-16T15:19:12;1035;;;12.6;50.3
74435;BME280;62867;52.038;29.256;2022-10-16T15:24:12;1034.9;;;12.3;50.9
74435;BME280;62867;52.038;29.256;2022-10-16T15:29:20;1034.8;;;12;50.6
74435;BME280;62867;52.038;29.256;2022-10-16T15:34:10;1035;;;11.8;51.2
74435;BME280;62867;52.038;29.256;2022-10-16T15:39:00;1035.1;;;11.6;52.3
74435;BME280;62867;52.038;29.256;2022-10-16T15:44:00;1035.2;;;11.4;52.9
74435;BME280;62867;52.038;29.256;2022-10-16T15:49:34;1035.4;;;11.1;54.6
74435;BME280;62867;52.038;29.256;2022-10-16T15:54:22;1035.4;;;10.9;55.2
74435;BME280;62867;52.038;29.256;2022-10-16T15:59:10;1035.4;;;10.7;55.7
74435;BME280;62867;52.038;29.256;2022-10-16T16:04:12;1035.4;;;10.5;56.4
74435;BME280;62867;52.038;29.256;2022-10-16T16:09:34;1035.4;;;10.3;56.6
74435;BME280;62867;52.038;29.256;2022-10-16T16:14:32;1035.3;;;10.2;56.8
74435;BME280;62867;52.038;29.256;2022-10-16T16:19:10;1035.4;;;10.1;57.1
74435;BME280;62867;52.038;29.256;2022-10-16T16:23:52;1035.4;;;10.1;57.4
74435;BME280;62867;52.038;29.256;2022-10-16T16:28:58;1035.3;;;10.1;56.4
74435;BME280;62867;52.038;29.256;2022-10-16T16:34:10;1035.3;;;10.2;55.8
74435;BME280;62867;52.038;29.256;2022-10-16T16:39:08;1035.4;;;10.4;54.6
74435;BME280;62867;52.038;29.256;2022-10-16T16:44:07;1035.5;;;10.7;54.4
74435;BME280;62867;52.038;29.256;2022-10-16T16:49:24;1035.7;;;10.9;53
74435;BME280;62867;52.038;29.256;2022-10-16T16:54:10;1035.7;;;11;54
74435;BME280;62867;52.038;29.256;2022-10-16T16:59:22;1035.7;;;11.1;52.8
74435;BME280;62867;52.038;29.256;2022-10-16T17:04:32;1035.6;;;11.1;53.9
74435;BME280;62867;52.038;29.256;2022-10-16T17:09:20;1035.5;;;11.1;53.9
74435;BME280;62867;52.038;29.256;2022-10-16T17:13:44;1035.4;;;11;52.6
74435;BME280;62867;52.038;29.256;2022-10-16T17:18:58;1035.5;;;11.1;52.3
74435;BME280;62867;52.038;29.256;2022-10-16T17:23:56;1035.7;;;11.1;52.3
74435;BME280;62867;52.038;29.256;2022-10-16T17:29:30;1035.7;;;11.1;51.8
74435;BME280;62867;52.038;29.256;2022-10-16T17:34:18;1035.7;;;11.2;51.5
74435;BME280;62867;52.038;29.256;2022-10-16T17:39:18;1035.7;;;11.2;52.1
74435;BME280;62867;52.038;29.256;2022-10-16T17:44:18;1035.7;;;11.1;51.5
74435;BME280;62867;52.038;29.256;2022-10-16T17:49:20;1035.7;;;11.2;51.9
74435;BME280;62867;52.038;29.256;2022-10-16T17:54:12;1035.7;;;11.2;51.9
74435;BME280;62867;52.038;29.256;2022-10-16T17:59:18;1035.7;;;11.2;51.2
74435;BME280;62867;52.038;29.256;2022-10-16T18:03:42;1035.8;;;11.2;51.1
74435;BME280;62867;52.038;29.256;2022-10-16T18:08:42;1035.7;;;11.1;50.9
74435;BME280;62867;52.038;29.256;2022-10-16T18:13:42;1035.7;;;11.1;51.2
74435;BME280;62867;52.038;29.256;2022-10-16T18:19:32;1035.6;;;11;51.5
74435;BME280;62867;52.038;29.256;2022-10-16T18:24:30;1035.6;;;11;51.2
74435;BME280;62867;52.038;29.256;2022-10-16T18:29:08;1035.5;;;11;51.6
74435;BME280;62867;52.038;29.256;2022-10-16T18:34:10;1035.5;;;11;50.6
74435;BME280;62867;52.038;29.256;2022-10-16T18:39:32;1035.6;;;11;50.2
74435;BME280;62867;52.038;29.256;2022-10-16T18:44:32;1035.5;;;11;50.3
74435;BME280;62867;52.038;29.256;2022-10-16T18:48:42;1035.6;;;11;50
74435;BME280;62867;52.038;29.256;2022-10-16T18:53:42;1035.7;;;11;49.9
74435;BME280;62867;52.038;29.256;2022-10-16T18:58:42;1035.8;;;11;50.8
74435;BME280;62867;52.038;29.256;2022-10-16T19:03:42;1035.8;;;11;50.4
74435;BME280;62867;52.038;29.256;2022-10-16T19:09:06;1035.8;;;11;51.2
74435;BME280;62867;52.038;29.256;2022-10-16T19:14:06;1035.8;;;11;50.6
74435;BME280;62867;52.038;29.256;2022-10-16T19:19:20;1035.9;;;11;49.5
74435;BME280;62867;52.038;29.256;2022-10-16T19:24:20;1035.9;;;11;49.8
74435;BME280;62867;52.038;29.256;2022-10-16T19:28:43;1035.9;;;11.1;49.1
74435;BME280;62867;52.038;29.256;2022-10-16T19:34:34;1035.9;;;11.1;49.5
74435;BME280;62867;52.038;29.256;2022-10-16T19:39:18;1035.9;;;11.1;49.9
74435;BME280;62867;52.038;29.256;2022-10-16T19:43:54;1035.8;;;11.1;49.5
74435;BME280;62867;52.038;29.256;2022-10-16T19:48:56;1035.7;;;11.1;49.2
74435;BME280;62867;52.038;29.256;2022-10-16T19:53:42;1035.7;;;11.1;49.1
74435;BME280;62867;52.038;29.256;2022-10-16T19:59:34;1035.8;;;11.1;49.8
74435;BME280;62867;52.038;29.256;2022-10-16T20:04:20;1035.8;;;11;49.4
74435;BME280;62867;52.038;29.256;2022-10-16T20:09:31;1035.9;;;11;49.3
74435;BME280;62867;52.038;29.256;2022-10-16T20:14:20;1036;;;11;49.9
74435;BME280;62867;52.038;29.256;2022-10-16T20:19:20;1036;;;11;50.2
74435;BME280;62867;52.038;29.256;2022-10-16T20:23:42;1036.1;;;11;49.8
74435;BME280;62867;52.038;29.256;2022-10-16T20:29:18;1036.2;;;11;50.1
74435;BME280;62867;52.038;29.256;2022-10-16T20:34:00;1036.2;;;11;50.3
74435;BME280;62867;52.038;29.256;2022-10-16T20:38:54;1036.2;;;11;50.9
74435;BME280;62867;52.038;29.256;2022-10-16T20:43:58;1036.2;;;10.9;50.7
74435;BME280;62867;52.038;29.256;2022-10-16T20:49:36;1036.1;;;10.8;51.2
74435;BME280;62867;52.038;29.256;2022-10-16T20:54:24;1036.1;;;10.8;50.8
74435;BME280;62867;52.038;29.256;2022-10-16T20:59:10;1036;;;10.7;50.7
74435;BME280;62867;52.038;29.256;2022-10-16T21:03:54;1036.1;;;10.6;50.6
74435;BME280;62867;52.038;29.256;2022-10-16T21:09:34;1036.1;;;10.6;51.9
74435;BME280;62867;52.038;29.256;2022-10-16T21:14:36;1036.1;;;10.5;51.8
74435;BME280;62867;52.038;29.256;2022-10-16T21:19:36;1036.1;;;10.5;51.5
74435;BME280;62867;52.038;29.256;2022-10-16T21:24:08;1036;;;10.4;51.4
74435;BME280;62867;52.038;29.256;2022-10-16T21:28:58;1036;;;10.3;51.2
74435;BME280;62867;52.038;29.256;2022-10-16T21:33:58;1036;;;10.3;51.2
74435;BME280;62867;52.038;29.256;2022-10-16T21:39:20;1036;;;10.3;51.6
74435;BME280;62867;52.038;29.256;2022-10-16T21:44:08;1036;;;10.2;52
74435;BME280;62867;52.038;29.256;2022-10-16T21:49:10;1036.1;;;10.1;51.9
74435;BME280;62867;52.038;29.256;2022-10-16T21:54:13;1036.1;;;10.1;52.5
74435;BME280;62867;52.038;29.256;2022-10-16T21:59:36;1036.2;;;10;52.3
74435;BME280;62867;52.038;29.256;2022-10-16T22:04:13;1036.2;;;10;53.7
74435;BME280;62867;52.038;29.256;2022-10-16T22:09:34;1036.1;;;10;53.1
74435;BME280;62867;52.038;29.256;2022-10-16T22:14:34;1036.2;;;10;53.2
74435;BME280;62867;52.038;29.256;2022-10-16T22:19:00;1036.3;;;9.9;53.8
74435;BME280;62867;52.038;29.256;2022-10-16T22:23:56;1036.2;;;9.9;53.7
74435;BME280;62867;52.038;29.256;2022-10-16T22:29:22;1036.2;;;9.9;53.8
74435;BME280;62867;52.038;29.256;2022-10-16T22:34:34;1036.3;;;9.8;54.2
74435;BME280;62867;52.038;29.256;2022-10-16T22:39:16;1036.2;;;9.8;54.3
74435;BME280;62867;52.038;29.256;2022-10-16T22:44:20;1036.3;;;9.7;54.5
74435;BME280;62867;52.038;29.256;2022-10-16T22:49:20;1036.3;;;9.7;55
74435;BME280;62867;52.038;29.256;2022-10-16T22:54:10;1036.3;;;9.7;54.3
74435;BME280;62867;52.038;29.256;2022-10-16T22:59:08;1036.4;;;9.7;54.6
74435;BME280;62867;52.038;29.256;2022-10-16T23:04:02;1036.4;;;9.7;54.8
74435;BME280;62867;52.038;29.256;2022-10-16T23:08:58;1036.4;;;9.7;55.1
74435;BME280;62867;52.038;29.256;2022-10-16T23:13:58;1036.4;;;9.7;55.8
74435;BME280;62867;52.038;29.256;2022-10-16T23:18:44;1036.4;;;9.7;54.8
74435;BME280;62867;52.038;29.256;2022-10-16T23:24:26;1036.3;;;9.7;54.8
74435;BME280;62867;52.038;29.256;2022-10-16T23:29:20;1036.3;;;9.7;54.6
74435;BME280;62867;52.038;29.256;2022-10-16T23:34:08;1036.2;;;9.7;55.3
74435;BME280;62867;52.038;29.256;2022-10-16T23:38:58;1036.3;;;9.6;54.3
74435;BME280;62867;52.038;29.256;2022-10-16T23:44:26;1036.3;;;9.7;54.8
74435;BME280;62867;52.038;29.256;2022-10-16T23:49:28;1036.4;;;9.7;54.5
74435;BME280;62867;52.038;29.256;2022-10-16T23:53:58;1036.4;;;9.8;54.4
74435;BME280;62867;52.038;29.256;2022-10-16T23:59:02;1036.5;;;9.8;54.5
